地図

経路データ

SID SEASON NUMBER BASIN SUBBASIN NAME ISO_TIME NATURE LAT LON WMO_WIND WMO_PRES WMO_AGENCY TRACK_TYPE DIST2LAND LANDFALL IFLAG USA_AGENCY USA_ATCF_ID USA_LAT USA_LON USA_RECORD USA_STATUS USA_WIND USA_PRES USA_SSHS USA_R34_NE USA_R34_SE USA_R34_SW USA_R34_NW USA_R50_NE USA_R50_SE USA_R50_SW USA_R50_NW USA_R64_NE USA_R64_SE USA_R64_SW USA_R64_NW USA_POCI USA_ROCI USA_RMW USA_EYE TOKYO_LAT TOKYO_LON TOKYO_GRADE TOKYO_WIND TOKYO_PRES TOKYO_R50_DIR TOKYO_R50_LONG TOKYO_R50_SHORT TOKYO_R30_DIR TOKYO_R30_LONG TOKYO_R30_SHORT TOKYO_LAND CMA_LAT CMA_LON CMA_CAT CMA_WIND CMA_PRES HKO_LAT HKO_LON HKO_CAT HKO_WIND HKO_PRES NEWDELHI_LAT NEWDELHI_LON NEWDELHI_GRADE NEWDELHI_WIND NEWDELHI_PRES NEWDELHI_CI NEWDELHI_DP NEWDELHI_POCI REUNION_LAT REUNION_LON REUNION_TYPE REUNION_WIND REUNION_PRES REUNION_TNUM REUNION_CI REUNION_RMW REUNION_R34_NE REUNION_R34_SE REUNION_R34_SW REUNION_R34_NW REUNION_R50_NE REUNION_R50_SE REUNION_R50_SW REUNION_R50_NW REUNION_R64_NE REUNION_R64_SE REUNION_R64_SW REUNION_R64_NW BOM_LAT BOM_LON BOM_TYPE BOM_WIND BOM_PRES BOM_TNUM BOM_CI BOM_RMW BOM_R34_NE BOM_R34_SE BOM_R34_SW BOM_R34_NW BOM_R50_NE BOM_R50_SE BOM_R50_SW BOM_R50_NW BOM_R64_NE BOM_R64_SE BOM_R64_SW BOM_R64_NW BOM_ROCI BOM_POCI BOM_EYE BOM_POS_METHOD BOM_PRES_METHOD NADI_LAT NADI_LON NADI_CAT NADI_WIND NADI_PRES WELLINGTON_LAT WELLINGTON_LON WELLINGTON_WIND WELLINGTON_PRES DS824_LAT DS824_LON DS824_STAGE DS824_WIND DS824_PRES TD9636_LAT TD9636_LON TD9636_STAGE TD9636_WIND TD9636_PRES TD9635_LAT TD9635_LON TD9635_WIND TD9635_PRES TD9635_ROCI NEUMANN_LAT NEUMANN_LON NEUMANN_CLASS NEUMANN_WIND NEUMANN_PRES MLC_LAT MLC_LON MLC_CLASS MLC_WIND MLC_PRES USA_GUST BOM_GUST BOM_GUST_PER REUNION_GUST REUNION_GUST_PER USA_SEAHGT USA_SEARAD_NE USA_SEARAD_SE USA_SEARAD_SW USA_SEARAD_NW STORM_SPEED STORM_DIR
1962241N18220 1962 72 EP MM NOT_NAMED 1962-08-29 00:00:00 TS 18.0000 -139.900 45 hurdat_epa main 1577 1535 O________O____ hurdat_epa EP051962 18.0000 -139.900 TS 45 0 18.0000 -139.900 TC 45 8 272
1962241N18220 1962 72 EP CP NOT_NAMED 1962-08-29 03:00:00 TS 18.0099 -140.297 main 1535 1483 P________P____ EP051962 18.0086 -139.717 TS 45 0 18.0104 -140.515 TC 45 9 270
1962241N18220 1962 72 EP CP NOT_NAMED 1962-08-29 06:00:00 TS 18.0000 -140.800 45 hurdat_epa main 1483 1420 O________O____ hurdat_epa EP051962 18.0000 -140.000 TS 45 0 18.0000 -141.100 TC 45 11 267
1962241N18220 1962 72 EP CP NOT_NAMED 1962-08-29 09:00:00 TS 17.9580 -141.458 main 1410 1349 P________P____ EP051962 17.9598 -140.998 TS 45 0 17.9574 -141.630 TC 45 12 265
1962241N18220 1962 72 EP CP NOT_NAMED 1962-08-29 12:00:00 TS 17.9000 -142.100 45 hurdat_epa main 1349 1307 O________O____ hurdat_epa EP051962 17.9000 -142.100 TS 45 0 17.9000 -142.100 TC 45 10 264
1962241N18220 1962 72 EP CP NOT_NAMED 1962-08-29 15:00:00 TS 17.8494 -142.515 main 1309 1267 P________P____ EP051962 17.8488 -142.575 TS 45 0 17.8497 -142.492 TC 45 8 263
1962241N18220 1962 72 EP CP NOT_NAMED 1962-08-29 18:00:00 TS 17.8000 -142.900 45 hurdat_epa main 1267 1215 O________O____ hurdat_epa EP051962 17.8000 -142.900 TS 45 0 17.8000 -142.900 TC 45 9 264
1962241N18220 1962 72 EP CP NOT_NAMED 1962-08-29 21:00:00 TS 17.7501 -143.435 main 1215 1155 P________P____ EP051962 17.7501 -143.435 TS 45 0 17.7501 -143.435 TC 45 11 265
1962241N18220 1962 72 EP CP NOT_NAMED 1962-08-30 00:00:00 TS 17.7000 -144.000 45 hurdat_epa main 1155 1103 O________O____ hurdat_epa EP051962 17.7000 -144.000 TS 45 0 17.7000 -144.000 TC 45 10 264
1962241N18220 1962 72 EP CP NOT_NAMED 1962-08-30 03:00:00 TS 17.6498 -144.500 main 1106 1054 P________P____ EP051962 17.6498 -144.500 TS 35 0 17.6498 -144.500 TC 35 10 264
1962241N18220 1962 72 EP CP NOT_NAMED 1962-08-30 06:00:00 TS 17.6000 -145.000 25 hurdat_epa main 1054 1003 O________O____ hurdat_epa EP051962 17.6000 -145.000 TD 25 -1 17.6000 -145.000 TC 25 10 264
1962241N18220 1962 72 EP CP NOT_NAMED 1962-08-30 09:00:00 TS 17.5501 -145.565 main 992 944 P________P____ EP051962 17.5501 -145.565 TD 25 -1 17.5501 -145.565 TC 25 11 265
1962241N18220 1962 72 EP CP NOT_NAMED 1962-08-30 12:00:00 TS 17.5000 -146.100 25 hurdat_epa main 944 903 O________O____ hurdat_epa EP051962 17.5000 -146.100 TD 25 -1 17.5000 -146.100 TC 25 9 264
1962241N18220 1962 72 EP CP NOT_NAMED 1962-08-30 15:00:00 TS 17.4497 -146.515 main 906 865 P________P____ EP051962 17.4497 -146.515 TD 25 -1 17.4497 -146.515 TC 25 8 263
1962241N18220 1962 72 EP CP NOT_NAMED 1962-08-30 18:00:00 TS 17.4000 -146.900 25 hurdat_epa main 865 825 O________O____ hurdat_epa EP051962 17.4000 -146.900 TD 25 -1 17.4000 -146.900 TC 25 8 264
1962241N18220 1962 72 EP CP NOT_NAMED 1962-08-30 21:00:00 TS 17.3650 -147.357 main 815 778 P________P____ EP051962 17.3650 -147.357 TD 25 -1 17.3650 -147.357 TC 25 9 263
1962241N18220 1962 72 EP CP NOT_NAMED 1962-08-31 00:00:00 TS 17.3000 -147.800 25 hurdat_epa main 778 752 O________O____ hurdat_epa EP051962 17.3000 -147.800 TD 25 -1 17.3000 -147.800 TC 25 8 255
1962241N18220 1962 72 EP CP NOT_NAMED 1962-08-31 03:00:00 TS 17.1572 -148.143 main 752 721 P________P____ EP051962 17.1572 -148.143 TD 25 -1 17.1572 -148.143 TC 25 7 246
1962241N18220 1962 72 EP CP NOT_NAMED 1962-08-31 06:00:00 TS 17.0000 -148.500 25 hurdat_epa main 721 687 O________O____ hurdat_epa EP051962 17.0000 -148.500 TD 25 -1 17.0000 -148.500 TC 25 8 251
1962241N18220 1962 72 EP CP NOT_NAMED 1962-08-31 09:00:00 TS 16.8850 -148.978 main 678 636 P________P____ EP051962 16.8850 -148.978 TD 25 -1 16.8850 -148.978 TC 25 10 258
1962241N18220 1962 72 EP CP NOT_NAMED 1962-08-31 12:00:00 TS 16.8000 -149.500 25 hurdat_epa main 636 590 O________O____ hurdat_epa EP051962 16.8000 -149.500 TD 25 -1 16.8000 -149.500 TC 25 10 262
1962241N18220 1962 72 EP CP NOT_NAMED 1962-08-31 15:00:00 TS 16.7499 -150.007 main 596 551 P________P____ EP051962 16.7499 -150.007 TD 25 -1 16.7499 -150.007 TC 25 10 264
1962241N18220 1962 72 EP CP NOT_NAMED 1962-08-31 18:00:00 TS 16.7000 -150.500 25 hurdat_epa main 551 524 O________O____ hurdat_epa EP051962 16.7000 -150.500 TD 25 -1 16.7000 -150.500 TC 25 9 261
1962241N18220 1962 72 EP CP NOT_NAMED 1962-08-31 21:00:00 TS 16.5998 -150.950 main 516 491 P________P____ EP051962 16.5998 -150.950 TD 25 -1 16.5998 -150.950 TC 25 9 257
1962241N18220 1962 72 EP CP NOT_NAMED 1962-09-01 00:00:00 TS 16.5000 -151.400 25 hurdat_epa main 491 461 O________O____ hurdat_epa EP051962 16.5000 -151.400 TD 25 -1 16.5000 -151.400 TC 25 9 260
1962241N18220 1962 72 EP CP NOT_NAMED 1962-09-01 03:00:00 TS 16.4424 -151.892 main 461 425 P________P____ EP051962 16.4424 -151.892 TD 25 -1 16.4424 -151.892 TC 25 10 264
1962241N18220 1962 72 EP CP NOT_NAMED 1962-09-01 06:00:00 TS 16.4000 -152.400 25 hurdat_epa main 425 393 O________O____ hurdat_epa EP051962 16.4000 -152.400 TD 25 -1 16.4000 -152.400 TC 25 10 265
1962241N18220 1962 72 EP CP NOT_NAMED 1962-09-01 09:00:00 TS 16.3649 -152.907 main 393 375 P________P____ EP051962 16.3649 -152.907 TD 25 -1 16.3649 -152.907 TC 25 10 264
1962241N18220 1962 72 EP CP NOT_NAMED 1962-09-01 12:00:00 TS 16.3000 -153.400 25 hurdat_epa main 375 363 O________O____ hurdat_epa EP051962 16.3000 -153.400 TD 25 -1 16.3000 -153.400 TC 25 9 257
1962241N18220 1962 72 EP CP NOT_NAMED 1962-09-01 15:00:00 TS 16.1574 -153.858 main 357 356 P________P____ EP051962 16.1574 -153.858 TD 25 -1 16.1574 -153.858 TC 25 9 251
1962241N18220 1962 72 EP CP NOT_NAMED 1962-09-01 18:00:00 TS 16.0000 -154.300 25 hurdat_epa main 356 348 O________O____ hurdat_epa EP051962 16.0000 -154.300 TD 25 -1 16.0000 -154.300 TC 25 9 252
1962241N18220 1962 72 EP CP NOT_NAMED 1962-09-01 21:00:00 TS 15.8852 -154.747 main 352 346 P________P____ EP051962 15.8852 -154.747 TD 25 -1 15.8852 -154.747 TC 25 9 257
1962241N18220 1962 72 EP CP NOT_NAMED 1962-09-02 00:00:00 TS 15.8000 -155.200 25 hurdat_epa main 350 O________O____ hurdat_epa EP051962 15.8000 -155.200 TD 25 -1 15.8000 -155.200 TC 25 9 259

IBTrACS Databaseについて

本データベースは、米国NOAAが公開する1842年以降の世界の熱帯低気圧のベストトラックデータアーカイブInternational Best Track Archive for Climate Stewardship (IBTrACS)を、ウェブで閲覧しやすい形式に変換したものです。

最終更新日:2021-10-08